Terminal Aerodrome Forecast
Issued by NWS Portland, OR

Home | Current Version | Previous Version | Text Only | Print | Product List | Glossary On
Versions: 1 2 3 4 5 6 7 8 9 10 11 12 13 14 15 16
000
FTUS46 KPQR 191144
TAFSLE
TAF
KSLE 191144Z 1912/2012 18005KT 2SM BR OVC002
     FM191600 16005KT 6SM BR OVC007
     FM191900 17012KT P6SM OVC050
     FM200400 18015G22KT 6SM -RA SCT025 OVC040
     FM200700 16018G25KT 4SM -RA BR OVC022
     FM201100 18012G22KT P6SM -RA OVC025=

USA.gov is the U.S. government's official web portal to all federal, state and local government web resources and services.